createdAt,value
2023-03-02T00:02:23.861Z,102019.22
2023-03-02T00:04:59.067Z,102019.22
2023-03-02T00:07:37.239Z,102020.44
2023-03-02T00:10:05.994Z,102018.13
2023-03-02T00:12:36.539Z,102016.44
2023-03-02T00:15:07.584Z,102021.06
2023-03-02T00:17:37.319Z,102016.84
2023-03-02T00:20:12.186Z,102018.53
2023-03-02T00:22:45.079Z,102021.25
2023-03-02T00:25:17.458Z,102029.56
2023-03-02T00:27:45.767Z,102018.25
2023-03-02T00:30:17.163Z,102014.53
2023-03-02T00:32:47.296Z,102019.13
2023-03-02T00:35:18.549Z,102020.97
2023-03-02T00:37:48.627Z,102013.25
2023-03-02T00:40:19.140Z,102007.19
2023-03-02T00:42:49.237Z,102010.72
2023-03-02T00:45:19.336Z,102008.00
2023-03-02T00:47:49.480Z,102007.38
2023-03-02T00:50:19.860Z,101999.41
2023-03-02T00:52:49.917Z,102004.00
2023-03-02T00:55:20.237Z,101998.59
2023-03-02T00:57:55.316Z,102004.00
2023-03-02T01:00:28.866Z,102008.59
2023-03-02T01:02:59.212Z,102002.53
2023-03-02T01:05:29.449Z,101998.16
2023-03-02T01:07:59.504Z,102002.94
2023-03-02T01:10:32.838Z,102000.44
2023-03-02T01:13:01.623Z,102010.44
2023-03-02T01:15:29.585Z,102002.31
2023-03-02T01:17:58.761Z,102003.31
2023-03-02T01:20:27.000Z,102003.50
2023-03-02T01:22:55.691Z,102006.44
2023-03-02T01:25:23.371Z,102004.75
2023-03-02T01:27:51.678Z,101994.94
2023-03-02T01:30:20.828Z,101997.84
2023-03-02T01:32:50.939Z,101997.03
2023-03-02T01:35:21.022Z,101994.31
2023-03-02T01:37:51.088Z,101994.31
2023-03-02T01:40:21.275Z,101979.06
2023-03-02T01:43:04.726Z,101982.00
2023-03-02T01:45:48.758Z,101983.00
2023-03-02T01:48:47.318Z,101985.91
2023-03-02T01:51:25.119Z,101971.53
2023-03-02T01:54:08.661Z,101977.78
2023-03-02T01:56:41.566Z,101976.13
2023-03-02T01:59:20.840Z,101975.47
2023-03-02T02:02:00.536Z,101966.69
2023-03-02T02:04:38.078Z,101967.72
2023-03-02T02:07:10.366Z,101965.22
2023-03-02T02:09:49.070Z,101958.09
2023-03-02T02:12:23.842Z,101954.56
2023-03-02T02:14:55.917Z,101949.31
2023-03-02T02:17:26.722Z,101952.25
2023-03-02T02:20:21.121Z,101951.41
2023-03-02T02:23:19.650Z,101952.63
2023-03-02T02:25:55.692Z,101956.19
2023-03-02T02:29:12.374Z,101956.19
2023-03-02T02:31:59.463Z,101949.09
2023-03-02T02:34:46.622Z,101950.97
2023-03-02T02:37:50.674Z,101949.72
2023-03-02T02:41:00.203Z,101945.97
2023-03-02T02:43:33.709Z,101948.69
2023-03-02T02:46:04.625Z,101952.44
2023-03-02T02:48:35.555Z,101951.03
2023-03-02T02:51:16.646Z,101955.81
2023-03-02T02:53:59.887Z,101963.47
2023-03-02T02:56:39.084Z,101954.06
2023-03-02T02:59:24.891Z,101953.41
2023-03-02T03:01:58.566Z,101955.66
2023-03-02T03:04:32.851Z,101954.19
2023-03-02T03:07:07.079Z,101950.00
2023-03-02T03:09:37.216Z,101951.69
2023-03-02T03:12:25.152Z,101943.13
2023-03-02T03:14:55.853Z,101943.31
2023-03-02T03:17:25.432Z,101939.94
2023-03-02T03:19:53.932Z,101940.13
2023-03-02T03:22:22.203Z,101947.44
2023-03-02T03:24:50.675Z,101953.03
2023-03-02T03:27:19.057Z,101942.19
2023-03-02T03:29:48.500Z,101948.66
2023-03-02T03:32:16.961Z,101939.72
2023-03-02T03:34:45.647Z,101943.63
2023-03-02T03:37:19.568Z,101933.00
2023-03-02T03:39:49.670Z,101929.84
2023-03-02T03:42:20.026Z,101932.94
2023-03-02T03:44:50.131Z,101932.66
2023-03-02T03:47:20.225Z,101925.97
2023-03-02T03:49:50.442Z,101933.66
2023-03-02T03:52:30.456Z,101934.50
2023-03-02T03:55:02.610Z,101930.09
2023-03-02T03:57:32.705Z,101926.56
2023-03-02T04:00:10.618Z,101941.78
2023-03-02T04:02:42.226Z,101944.28
2023-03-02T04:05:14.265Z,101938.03
2023-03-02T04:07:44.464Z,101925.72
2023-03-02T04:10:14.715Z,101931.13
2023-03-02T04:12:45.180Z,101930.31
2023-03-02T04:15:17.713Z,101932.16
2023-03-02T04:17:47.806Z,101932.16
2023-03-02T04:20:21.920Z,101927.13
2023-03-02T04:22:57.506Z,101925.44
2023-03-02T04:25:31.138Z,101923.78
2023-03-02T04:28:00.387Z,101923.78
2023-03-02T04:30:30.301Z,101919.38
2023-03-02T04:33:00.434Z,101914.19
2023-03-02T04:35:30.524Z,101922.09
2023-03-02T04:38:00.350Z,101930.22
2023-03-02T04:40:30.374Z,101931.25
2023-03-02T04:43:00.142Z,101935.84
2023-03-02T04:45:29.980Z,101936.69
2023-03-02T04:47:59.992Z,101934.16
2023-03-02T04:50:30.360Z,101939.78
2023-03-02T04:53:00.621Z,101942.66
2023-03-02T04:55:30.654Z,101948.28
2023-03-02T04:58:00.457Z,101943.91
2023-03-02T05:00:29.208Z,101940.53
2023-03-02T05:02:58.425Z,101938.22
2023-03-02T05:05:26.981Z,101929.44
2023-03-02T05:07:55.343Z,101931.31
2023-03-02T05:10:23.667Z,101926.72
2023-03-02T05:12:55.068Z,101923.84
2023-03-02T05:15:36.879Z,101924.66
2023-03-02T05:18:08.911Z,101927.38
2023-03-02T05:20:37.652Z,101927.19
2023-03-02T05:23:11.664Z,101927.19
2023-03-02T05:25:39.314Z,101929.91
2023-03-02T05:28:07.143Z,101929.06
2023-03-02T05:30:37.863Z,101925.50
2023-03-02T05:33:07.364Z,101929.06
2023-03-02T05:35:37.699Z,101925.50
2023-03-02T05:38:07.467Z,101930.91
2023-03-02T05:40:38.231Z,101930.28
2023-03-02T05:43:08.600Z,101932.16
2023-03-02T05:45:39.094Z,101933.19
2023-03-02T05:48:12.201Z,101932.97
2023-03-02T05:50:42.384Z,101934.03
2023-03-02T05:53:11.747Z,101935.69
2023-03-02T05:55:40.167Z,101931.78
2023-03-02T05:58:14.969Z,101931.38
2023-03-02T06:00:44.160Z,101936.59
2023-03-02T06:03:11.859Z,101939.78
2023-03-02T06:05:40.512Z,101935.19
2023-03-02T06:08:08.416Z,101937.78
2023-03-02T06:10:36.845Z,101940.56
2023-03-02T06:13:05.212Z,101940.38
2023-03-02T06:15:33.553Z,101943.91
2023-03-02T06:18:00.858Z,101945.97
2023-03-02T06:20:30.513Z,101951.38
2023-03-02T06:23:00.470Z,101947.63
2023-03-02T06:25:30.237Z,101948.94
2023-03-02T06:28:00.091Z,101944.97
2023-03-02T06:30:30.247Z,101948.97
2023-03-02T06:33:00.004Z,101947.56
2023-03-02T06:35:30.106Z,101945.31
2023-03-02T06:38:00.053Z,101945.56
2023-03-02T06:40:30.325Z,101948.34
2023-03-02T06:43:03.855Z,101958.38
2023-03-02T06:45:37.887Z,101957.22
2023-03-02T06:48:07.980Z,101955.22
2023-03-02T06:50:36.358Z,101953.19
2023-03-02T06:53:03.587Z,101963.06
2023-03-02T06:55:33.412Z,101954.56
2023-03-02T06:58:03.114Z,101956.09
2023-03-02T07:00:32.766Z,101960.13
2023-03-02T07:03:02.630Z,101953.66
2023-03-02T07:05:32.433Z,101954.16
2023-03-02T07:08:02.869Z,101951.91
2023-03-02T07:10:33.425Z,101951.13
2023-03-02T07:13:03.220Z,101948.69
2023-03-02T07:15:32.761Z,101959.16
2023-03-02T07:18:02.471Z,101964.03
2023-03-02T07:20:32.269Z,101959.50
2023-03-02T07:23:02.098Z,101963.03
2023-03-02T07:25:32.689Z,101959.28
2023-03-02T07:28:02.693Z,101955.72
2023-03-02T07:30:32.453Z,101959.59
2023-03-02T07:33:02.295Z,101959.56
2023-03-02T07:35:32.154Z,101964.03
2023-03-02T07:38:01.975Z,101958.47
2023-03-02T07:40:31.797Z,101958.47
2023-03-02T07:43:01.608Z,101955.81
2023-03-02T07:45:31.329Z,101952.44
2023-03-02T07:48:01.088Z,101962.06
2023-03-02T07:50:32.549Z,101954.28
2023-03-02T07:53:01.143Z,101952.84
2023-03-02T07:55:31.159Z,101955.47
2023-03-02T07:58:00.844Z,101962.53
2023-03-02T08:00:30.551Z,101958.94
2023-03-02T08:03:00.464Z,101957.56
2023-03-02T08:05:31.259Z,101959.41
2023-03-02T08:08:00.574Z,101953.56
2023-03-02T08:10:30.295Z,101959.50
2023-03-02T08:13:00.105Z,101958.09
2023-03-02T08:15:29.862Z,101948.06
2023-03-02T08:17:59.698Z,101940.69
2023-03-02T08:20:29.656Z,101953.09
2023-03-02T08:22:59.438Z,101943.03
2023-03-02T08:25:29.308Z,101947.31
2023-03-02T08:27:59.131Z,101949.50
2023-03-02T08:30:28.905Z,101952.22
2023-03-02T08:32:58.824Z,101949.03
2023-03-02T08:35:31.509Z,101940.22
2023-03-02T08:38:01.469Z,101938.94
2023-03-02T08:40:29.158Z,101943.72
2023-03-02T08:42:59.112Z,101942.63
2023-03-02T08:45:29.191Z,101943.00
2023-03-02T08:47:59.035Z,101939.50
2023-03-02T08:50:28.792Z,101940.09
2023-03-02T08:52:58.613Z,101941.63
2023-03-02T08:55:28.362Z,101939.22
2023-03-02T08:57:58.291Z,101938.97
2023-03-02T09:00:26.771Z,101943.97
2023-03-02T09:02:55.175Z,101932.19
2023-03-02T09:05:23.631Z,101937.78
2023-03-02T09:07:52.017Z,101926.59
2023-03-02T09:10:20.669Z,101935.34
2023-03-02T09:12:48.947Z,101937.97
2023-03-02T09:15:17.678Z,101937.06
2023-03-02T09:17:45.985Z,101926.16
2023-03-02T09:20:14.817Z,101928.06
2023-03-02T09:22:48.584Z,101926.09
2023-03-02T09:25:19.409Z,101930.94
2023-03-02T09:27:48.912Z,101931.13
2023-03-02T09:30:19.133Z,101926.91
2023-03-02T09:32:49.345Z,101925.16
2023-03-02T09:35:19.419Z,101920.97
2023-03-02T09:37:49.169Z,101915.75
2023-03-02T09:40:28.164Z,101919.38
2023-03-02T09:43:36.362Z,101907.81
2023-03-02T09:46:28.920Z,101918.78
2023-03-02T09:49:26.019Z,101913.44
2023-03-02T09:51:58.801Z,101906.59
2023-03-02T09:54:31.093Z,101913.66
2023-03-02T09:57:03.644Z,101910.25
2023-03-02T09:59:48.563Z,101922.59
2023-03-02T10:02:27.404Z,101922.06
2023-03-02T10:05:04.641Z,101917.25
2023-03-02T10:07:40.172Z,101916.38
2023-03-02T10:10:40.287Z,101914.56
2023-03-02T10:13:48.146Z,101921.31
2023-03-02T10:16:39.926Z,101923.47
2023-03-02T10:19:46.670Z,101925.22
2023-03-02T10:22:53.065Z,101922.56
2023-03-02T10:25:52.495Z,101932.13
2023-03-02T10:28:47.183Z,101927.09
2023-03-02T10:31:33.590Z,101920.47
2023-03-02T10:34:03.744Z,101916.78
2023-03-02T10:36:47.752Z,101917.72
2023-03-02T10:39:19.640Z,101923.84
2023-03-02T10:42:29.974Z,101913.25
2023-03-02T10:45:26.357Z,101914.38
2023-03-02T10:48:11.955Z,101913.16
2023-03-02T10:50:44.577Z,101907.97
2023-03-02T10:53:19.111Z,101913.63
2023-03-02T10:55:53.596Z,101909.47
2023-03-02T10:58:34.693Z,101908.28
2023-03-02T11:01:18.611Z,101899.78
2023-03-02T11:04:15.881Z,101905.28
2023-03-02T11:06:45.959Z,101900.53
2023-03-02T11:09:16.091Z,101899.78
2023-03-02T11:11:57.200Z,101893.34
2023-03-02T11:14:27.424Z,101892.91
2023-03-02T11:17:02.455Z,101895.31
2023-03-02T11:19:42.682Z,101888.44
2023-03-02T11:22:36.008Z,101900.22
2023-03-02T11:26:10.881Z,101900.91
2023-03-02T11:29:04.003Z,101894.84
2023-03-02T11:31:50.027Z,101900.09
2023-03-02T11:34:36.118Z,101895.91
2023-03-02T11:37:34.923Z,101887.84
2023-03-02T11:40:31.437Z,101889.41
2023-03-02T11:43:06.422Z,101887.56
2023-03-02T11:45:46.522Z,101877.41
2023-03-02T11:48:49.092Z,101884.81
2023-03-02T11:51:33.588Z,101885.47
2023-03-02T11:54:52.952Z,101871.91
2023-03-02T11:57:50.488Z,101865.50
2023-03-02T12:00:43.180Z,101871.72
2023-03-02T12:03:32.792Z,101868.66
2023-03-02T12:06:22.862Z,101867.06
2023-03-02T12:09:09.126Z,101862.31
2023-03-02T12:11:45.993Z,101854.16
2023-03-02T12:14:38.797Z,101857.03
2023-03-02T12:17:26.977Z,101856.78
2023-03-02T12:20:22.463Z,101848.91
2023-03-02T12:22:54.210Z,101847.88
2023-03-02T12:25:42.232Z,101844.06
2023-03-02T12:28:40.104Z,101843.03
2023-03-02T12:31:14.140Z,101842.31
2023-03-02T12:33:51.701Z,101838.94
2023-03-02T12:36:40.650Z,101842.59
2023-03-02T12:39:48.936Z,101823.00
2023-03-02T12:42:48.200Z,101826.06
2023-03-02T12:46:19.431Z,101821.13
2023-03-02T12:49:18.944Z,101806.00
2023-03-02T12:52:22.169Z,101814.69
2023-03-02T12:55:19.222Z,101801.53
2023-03-02T12:57:55.518Z,101807.44
2023-03-02T13:00:31.065Z,101804.22
2023-03-02T13:03:03.178Z,101793.72
2023-03-02T13:05:36.922Z,101797.88
2023-03-02T13:08:21.299Z,101794.28
2023-03-02T13:10:55.307Z,101789.13
2023-03-02T13:13:45.240Z,101780.88
2023-03-02T13:16:25.039Z,101781.53
2023-03-02T13:19:16.645Z,101783.38
2023-03-02T13:21:46.956Z,101786.44
2023-03-02T13:24:59.154Z,101774.16
2023-03-02T13:27:31.388Z,101780.38
2023-03-02T13:30:33.093Z,101786.22
2023-03-02T13:33:21.276Z,101785.31
2023-03-02T13:35:52.045Z,101781.44
2023-03-02T13:38:32.824Z,101773.31
2023-03-02T13:41:04.018Z,101777.75
2023-03-02T13:43:40.228Z,101776.69
2023-03-02T13:46:16.277Z,101770.34
2023-03-02T13:49:10.657Z,101760.97
2023-03-02T13:51:47.310Z,101752.94
2023-03-02T13:54:33.220Z,101756.84
2023-03-02T13:57:06.402Z,101757.06
2023-03-02T13:59:36.741Z,101751.59
2023-03-02T14:02:30.877Z,101746.34
2023-03-02T14:05:01.024Z,101743.25
2023-03-02T14:07:31.107Z,101750.38
2023-03-02T14:10:01.140Z,101749.63
2023-03-02T14:12:33.744Z,101743.56
2023-03-02T14:15:05.111Z,101738.88
2023-03-02T14:17:35.784Z,101738.88
2023-03-02T14:20:07.424Z,101724.78
2023-03-02T14:22:37.570Z,101737.75
2023-03-02T14:25:08.568Z,101738.84
2023-03-02T14:27:40.685Z,101731.69
2023-03-02T14:30:20.750Z,101725.28
2023-03-02T14:32:51.232Z,101722.75
2023-03-02T14:35:25.842Z,101721.16
2023-03-02T14:37:56.072Z,101718.41
2023-03-02T14:40:28.819Z,101714.75
2023-03-02T14:42:58.901Z,101715.78
2023-03-02T14:45:30.851Z,101710.56
2023-03-02T14:48:01.177Z,101709.00
2023-03-02T14:50:40.804Z,101711.63
2023-03-02T14:53:27.994Z,101701.84
2023-03-02T14:55:58.823Z,101691.97
2023-03-02T14:58:34.816Z,101696.09
2023-03-02T15:01:04.971Z,101694.16
2023-03-02T15:03:35.131Z,101703.56
2023-03-02T15:06:27.876Z,101699.00
2023-03-02T15:09:01.163Z,101709.09
2023-03-02T15:11:31.910Z,101703.44
2023-03-02T15:14:02.149Z,101704.94
2023-03-02T15:16:32.234Z,101701.59
2023-03-02T15:19:02.291Z,101700.78
2023-03-02T15:21:32.911Z,101699.16
2023-03-02T15:24:03.738Z,101704.47
2023-03-02T15:26:33.784Z,101701.78
2023-03-02T15:29:03.863Z,101713.44
2023-03-02T15:31:34.359Z,101705.28
2023-03-02T15:34:04.719Z,101703.66
2023-03-02T15:36:33.778Z,101708.97
2023-03-02T15:39:01.742Z,101696.00
2023-03-02T15:41:29.931Z,101697.56
2023-03-02T15:43:58.271Z,101702.06
2023-03-02T15:46:27.286Z,101690.72
2023-03-02T15:48:55.895Z,101699.84
2023-03-02T15:51:24.786Z,101689.28
2023-03-02T15:53:52.499Z,101687.56
2023-03-02T15:56:21.176Z,101690.13
2023-03-02T15:58:50.548Z,101683.75
2023-03-02T16:01:18.120Z,101680.56
2023-03-02T16:03:46.457Z,101682.19
2023-03-02T16:06:16.085Z,101682.13
2023-03-02T16:08:43.185Z,101684.78
2023-03-02T16:11:13.078Z,101693.94
2023-03-02T16:13:43.167Z,101686.22
2023-03-02T16:16:13.237Z,101688.28
2023-03-02T16:18:43.310Z,101687.78
2023-03-02T16:21:14.244Z,101687.09
2023-03-02T16:23:44.478Z,101688.75
2023-03-02T16:26:19.603Z,101683.25
2023-03-02T16:28:48.601Z,101680.19
2023-03-02T16:31:20.725Z,101678.72
2023-03-02T16:33:51.265Z,101676.31
2023-03-02T16:36:22.330Z,101677.88
2023-03-02T16:38:51.061Z,101678.56
2023-03-02T16:41:23.935Z,101686.88
2023-03-02T16:43:57.791Z,101688.66
2023-03-02T16:46:32.816Z,101684.34
2023-03-02T16:49:05.119Z,101687.28
2023-03-02T16:51:35.764Z,101691.75
2023-03-02T16:54:06.783Z,101687.69
2023-03-02T16:56:37.017Z,101690.13
2023-03-02T16:59:07.211Z,101691.44
2023-03-02T17:01:37.537Z,101690.56
2023-03-02T17:04:08.074Z,101711.34
2023-03-02T17:06:40.152Z,101704.00
2023-03-02T17:09:13.541Z,101714.53
2023-03-02T17:11:43.875Z,101709.91
2023-03-02T17:14:13.919Z,101714.06
2023-03-02T17:16:44.002Z,101710.78
2023-03-02T17:19:14.064Z,101710.34
2023-03-02T17:21:44.263Z,101715.28
2023-03-02T17:24:14.507Z,101723.09
2023-03-02T17:26:46.980Z,101715.50
2023-03-02T17:29:17.037Z,101719.75
2023-03-02T17:31:47.135Z,101721.88
2023-03-02T17:34:17.468Z,101722.09
2023-03-02T17:36:47.650Z,101725.22
2023-03-02T17:39:17.746Z,101722.41
2023-03-02T17:41:47.815Z,101728.94
2023-03-02T17:44:17.973Z,101723.22
2023-03-02T17:46:48.194Z,101725.72
2023-03-02T17:49:18.373Z,101727.34
2023-03-02T17:51:48.490Z,101729.47
2023-03-02T17:54:18.609Z,101724.91
2023-03-02T17:56:49.222Z,101730.44
2023-03-02T17:59:19.319Z,101735.22
2023-03-02T18:01:49.413Z,101726.00
2023-03-02T18:04:18.213Z,101738.41
2023-03-02T18:06:46.209Z,101731.28
2023-03-02T18:09:14.930Z,101731.59
2023-03-02T18:11:45.285Z,101724.59
2023-03-02T18:14:20.298Z,101742.47
2023-03-02T18:16:50.328Z,101744.91
2023-03-02T18:19:20.452Z,101736.38
2023-03-02T18:21:50.500Z,101742.66
2023-03-02T18:24:20.676Z,101746.97
2023-03-02T18:26:50.921Z,101746.97
2023-03-02T18:29:22.630Z,101750.63
2023-03-02T18:31:53.324Z,101753.09
2023-03-02T18:34:23.843Z,101753.28
2023-03-02T18:36:53.971Z,101758.56
2023-03-02T18:39:24.131Z,101753.09
2023-03-02T18:41:54.218Z,101749.25
2023-03-02T18:44:28.047Z,101750.38
2023-03-02T18:46:56.392Z,101751.22
2023-03-02T18:49:25.039Z,101748.50
2023-03-02T18:51:53.090Z,101746.00
2023-03-02T18:54:21.560Z,101744.69
2023-03-02T18:56:49.623Z,101752.06
2023-03-02T18:59:18.930Z,101755.75
2023-03-02T19:01:47.278Z,101755.53
2023-03-02T19:04:17.648Z,101745.09
2023-03-02T19:06:47.822Z,101737.34
2023-03-02T19:09:18.008Z,101750.16
2023-03-02T19:11:48.267Z,101745.53
2023-03-02T19:14:18.587Z,101734.78
2023-03-02T19:16:49.145Z,101731.66
2023-03-02T19:19:19.506Z,101740.25
2023-03-02T19:21:49.835Z,101737.03
2023-03-02T19:24:19.961Z,101745.22
2023-03-02T19:26:50.975Z,101750.00
2023-03-02T19:29:22.963Z,101752.72
2023-03-02T19:31:53.716Z,101750.00
2023-03-02T19:34:24.252Z,101745.84
2023-03-02T19:36:54.294Z,101754.22
2023-03-02T19:39:24.340Z,101751.38
2023-03-02T19:41:54.605Z,101752.75
2023-03-02T19:44:25.893Z,101753.28
2023-03-02T19:46:56.104Z,101748.25
2023-03-02T19:49:26.390Z,101744.69
2023-03-02T19:51:56.450Z,101743.84
2023-03-02T19:54:27.504Z,101761.59
2023-03-02T19:56:57.657Z,101754.19
2023-03-02T19:59:27.794Z,101764.00
2023-03-02T20:01:59.574Z,101758.94
2023-03-02T20:04:29.752Z,101755.38
2023-03-02T20:07:00.236Z,101756.97
2023-03-02T20:09:30.481Z,101764.56
2023-03-02T20:12:02.575Z,101753.03
2023-03-02T20:14:34.950Z,101758.09
2023-03-02T20:17:05.555Z,101760.00
2023-03-02T20:19:35.639Z,101760.22
2023-03-02T20:22:06.951Z,101757.88
2023-03-02T20:24:38.464Z,101757.16
2023-03-02T20:27:11.626Z,101763.03
2023-03-02T20:29:43.648Z,101773.94
2023-03-02T20:32:15.349Z,101775.44
2023-03-02T20:34:45.845Z,101769.38
2023-03-02T20:37:16.582Z,101776.44
2023-03-02T20:39:49.616Z,101777.28
2023-03-02T20:42:21.332Z,101778.16
2023-03-02T20:44:52.236Z,101772.72
2023-03-02T20:47:22.785Z,101777.34
2023-03-02T20:49:50.331Z,101777.34
2023-03-02T20:52:20.573Z,101766.44
2023-03-02T20:54:50.354Z,101770.59
2023-03-02T20:57:23.983Z,101775.09
2023-03-02T20:59:53.315Z,101768.66
2023-03-02T21:02:21.632Z,101776.44
2023-03-02T21:04:51.193Z,101768.72
2023-03-02T21:07:21.007Z,101767.72
2023-03-02T21:09:51.014Z,101775.72
2023-03-02T21:12:21.221Z,101773.59
2023-03-02T21:14:51.150Z,101776.28
2023-03-02T21:17:23.423Z,101776.44
2023-03-02T21:19:51.068Z,101772.59
2023-03-02T21:22:21.337Z,101776.38
2023-03-02T21:24:52.998Z,101769.66
2023-03-02T21:27:23.207Z,101763.38
2023-03-02T21:29:53.124Z,101768.22
2023-03-02T21:32:23.158Z,101769.88
2023-03-02T21:34:52.821Z,101776.00
2023-03-02T21:37:22.706Z,101773.13
2023-03-02T21:39:52.956Z,101770.47
2023-03-02T21:42:22.772Z,101758.97
2023-03-02T21:44:50.613Z,101763.44
2023-03-02T21:47:19.054Z,101765.97
2023-03-02T21:49:48.019Z,101769.31
2023-03-02T21:52:15.968Z,101773.81
2023-03-02T21:54:44.295Z,101774.75
2023-03-02T21:57:12.783Z,101769.50
2023-03-02T21:59:41.091Z,101764.72
2023-03-02T22:02:12.615Z,101764.31
2023-03-02T22:04:41.286Z,101763.94
2023-03-02T22:07:09.329Z,101771.72
2023-03-02T22:09:37.851Z,101765.66
2023-03-02T22:12:16.080Z,101765.41
2023-03-02T22:14:46.144Z,101755.38
2023-03-02T22:17:24.691Z,101760.84
2023-03-02T22:19:54.949Z,101757.03
2023-03-02T22:22:30.499Z,101757.50
2023-03-02T22:25:00.676Z,101756.47
2023-03-02T22:27:34.759Z,101754.78
2023-03-02T22:30:17.444Z,101743.13
2023-03-02T22:32:48.867Z,101753.97
2023-03-02T22:35:26.295Z,101757.50
2023-03-02T22:38:24.093Z,101752.94
2023-03-02T22:40:57.283Z,101743.41
2023-03-02T22:43:35.119Z,101750.09
2023-03-02T22:46:20.382Z,101742.13
2023-03-02T22:48:53.577Z,101742.19
2023-03-02T22:51:30.818Z,101745.38
2023-03-02T22:54:01.107Z,101743.53
2023-03-02T22:56:43.004Z,101733.66
2023-03-02T22:59:37.555Z,101716.03
2023-03-02T23:02:22.422Z,101722.34
2023-03-02T23:04:52.585Z,101723.78
2023-03-02T23:07:23.363Z,101719.34
2023-03-02T23:09:53.557Z,101714.94
2023-03-02T23:12:28.284Z,101709.97
2023-03-02T23:14:59.631Z,101725.69
2023-03-02T23:17:41.737Z,101724.84
2023-03-02T23:20:14.831Z,101718.75
2023-03-02T23:22:44.943Z,101717.88
2023-03-02T23:25:15.879Z,101716.66
2023-03-02T23:27:45.985Z,101704.44
2023-03-02T23:30:18.303Z,101704.25
2023-03-02T23:32:48.702Z,101692.81
2023-03-02T23:35:18.555Z,101691.59
2023-03-02T23:37:48.505Z,101692.19
2023-03-02T23:40:21.611Z,101681.22
2023-03-02T23:42:51.269Z,101673.94
2023-03-02T23:45:19.686Z,101671.56
2023-03-02T23:47:48.087Z,101673.41
2023-03-02T23:50:16.447Z,101680.22
2023-03-02T23:52:44.847Z,101685.47
2023-03-02T23:55:13.234Z,101697.91
2023-03-02T23:57:41.546Z,101703.56
